Terminal Aerodrome Forecast
Issued by NWS St Louis, MO

Home | Current Version | Previous Version | Text Only | Print | Product List | Glossary On
Versions: 1 2 3 4 5 6 7 8 9 10 11 12 13 14 15 16 17
000
FTUS43 KLSX 171013 AAA
TAFCOU
TAF AMD
KCOU 171013Z 1710/1806 22009KT P6SM SCT008 BKN050
      TEMPO 1710/1713 BKN008
     FM171300 24009KT P6SM BKN015
     FM171500 27013G19KT P6SM SCT030
     FM180000 26009KT P6SM SKC=

USA.gov is the U.S. government's official web portal to all federal, state and local government web resources and services.